createdAt,value
2018-12-15T00:01:28.870Z,100978.34
2018-12-15T00:03:57.251Z,100985.55
2018-12-15T00:06:25.681Z,100992.22
2018-12-15T00:08:54.076Z,100990.89
2018-12-15T00:11:23.056Z,100995.72
2018-12-15T00:13:51.502Z,100995.24
2018-12-15T00:16:20.054Z,101002.08
2018-12-15T00:18:48.909Z,100998.57
2018-12-15T00:21:17.360Z,100999.78
2018-12-15T00:23:46.433Z,101002.94
2018-12-15T00:26:14.834Z,100999.94
2018-12-15T00:28:43.346Z,100993.75
2018-12-15T00:31:11.804Z,100994.43
2018-12-15T00:33:40.244Z,100998.95
2018-12-15T00:36:08.695Z,101003.45
2018-12-15T00:38:37.176Z,101011.45
2018-12-15T00:41:05.631Z,101005.09
2018-12-15T00:43:34.025Z,101003.30
2018-12-15T00:46:02.460Z,101009.78
2018-12-15T00:48:30.871Z,101012.11
2018-12-15T00:50:59.331Z,101016.12
2018-12-15T00:53:27.783Z,101016.63
2018-12-15T00:55:56.195Z,101014.47
2018-12-15T00:58:24.608Z,101023.48
2018-12-15T01:00:53.052Z,101030.80
2018-12-15T01:03:21.755Z,101032.81
2018-12-15T01:05:50.167Z,101036.50
2018-12-15T01:08:18.610Z,101037.14
2018-12-15T01:10:47.016Z,101036.17
2018-12-15T01:13:15.423Z,101046.85
2018-12-15T01:15:45.855Z,101057.85
2018-12-15T01:18:14.897Z,101062.84
2018-12-15T01:20:43.300Z,101063.83
2018-12-15T01:23:11.743Z,101064.53
2018-12-15T01:25:40.224Z,101061.84
2018-12-15T01:28:09.161Z,101071.84
2018-12-15T01:30:37.560Z,101072.53
2018-12-15T01:33:05.991Z,101083.35
2018-12-15T01:35:34.505Z,101082.86
2018-12-15T01:38:02.939Z,101083.21
2018-12-15T01:40:31.363Z,101098.72
2018-12-15T01:42:59.814Z,101099.22
2018-12-15T01:45:28.411Z,101099.55
2018-12-15T01:47:56.862Z,101100.70
2018-12-15T01:50:25.307Z,101097.86
2018-12-15T01:52:53.711Z,101095.19
2018-12-15T01:55:22.097Z,101097.19
2018-12-15T01:57:50.519Z,101098.03
2018-12-15T02:00:19.539Z,101097.89
2018-12-15T02:02:47.903Z,101097.19
2018-12-15T02:05:16.352Z,101098.20
2018-12-15T02:07:44.767Z,101103.86
2018-12-15T02:10:13.435Z,101107.86
2018-12-15T02:12:41.862Z,101100.53
2018-12-15T02:15:10.528Z,101108.56
2018-12-15T02:17:38.891Z,101105.20
2018-12-15T02:20:07.423Z,101098.03
2018-12-15T02:22:35.803Z,101099.72
2018-12-15T02:25:04.276Z,101095.72
2018-12-15T02:27:32.656Z,101093.21
2018-12-15T02:30:01.076Z,101090.03
2018-12-15T02:32:29.464Z,101090.20
2018-12-15T02:34:57.920Z,101085.88
2018-12-15T02:37:26.927Z,101073.03
2018-12-15T02:39:55.308Z,101087.21
2018-12-15T02:42:23.694Z,101080.69
2018-12-15T02:44:52.078Z,101082.02
2018-12-15T02:47:20.626Z,101079.69
2018-12-15T02:49:49.920Z,101076.88
2018-12-15T02:52:18.356Z,101070.86
2018-12-15T02:54:46.739Z,101071.52
2018-12-15T02:57:15.284Z,101058.67
2018-12-15T02:59:43.704Z,101066.17
2018-12-15T03:02:12.135Z,101064.86
2018-12-15T03:04:40.511Z,101065.02
2018-12-15T03:07:08.935Z,101061.53
2018-12-15T03:09:37.323Z,101056.69
2018-12-15T03:12:05.724Z,101056.34
2018-12-15T03:14:34.182Z,101052.34
2018-12-15T03:17:06.148Z,101050.68
2018-12-15T03:19:34.711Z,101047.84
2018-12-15T03:22:03.138Z,101047.50
2018-12-15T03:24:31.507Z,101051.69
2018-12-15T03:26:59.885Z,101048.32
2018-12-15T03:29:28.285Z,101047.33
2018-12-15T03:31:56.689Z,101042.34
2018-12-15T03:34:26.080Z,101040.66
2018-12-15T03:36:54.488Z,101033.48
2018-12-15T03:39:22.904Z,101039.16
2018-12-15T03:41:51.454Z,101032.16
2018-12-15T03:44:20.014Z,101027.48
2018-12-15T03:46:48.519Z,101022.64
2018-12-15T03:49:16.980Z,101025.50
2018-12-15T03:51:45.379Z,101021.00
2018-12-15T03:54:13.839Z,101026.98
2018-12-15T03:56:42.339Z,101025.14
2018-12-15T03:59:10.958Z,101023.14
2018-12-15T04:01:39.509Z,101022.16
2018-12-15T04:04:07.912Z,101011.80
2018-12-15T04:06:36.288Z,101014.64
2018-12-15T04:09:06.589Z,101014.98
2018-12-15T04:11:35.151Z,101010.48
2018-12-15T04:14:03.987Z,101007.63
2018-12-15T04:16:32.865Z,101010.47
2018-12-15T04:19:02.327Z,101002.47
2018-12-15T04:21:31.128Z,100991.48
2018-12-15T04:23:59.582Z,100989.30
2018-12-15T04:26:27.983Z,100989.61
2018-12-15T04:28:56.433Z,100994.14
2018-12-15T04:31:24.824Z,100989.61
2018-12-15T04:33:53.232Z,100985.61
2018-12-15T04:36:21.628Z,100983.61
2018-12-15T04:38:50.009Z,100987.13
2018-12-15T04:41:18.419Z,100989.61
2018-12-15T04:43:47.298Z,100995.81
2018-12-15T04:46:15.696Z,100988.63
2018-12-15T04:48:44.103Z,100988.13
2018-12-15T04:51:13.426Z,100990.95
2018-12-15T04:53:41.803Z,100985.12
2018-12-15T04:56:10.636Z,100975.47
2018-12-15T04:58:39.026Z,100984.29
2018-12-15T05:01:07.451Z,100983.96
2018-12-15T05:03:35.845Z,100982.13
2018-12-15T05:06:04.289Z,100983.45
2018-12-15T05:08:33.049Z,100980.80
2018-12-15T05:11:01.482Z,100979.28
2018-12-15T05:13:30.073Z,100983.45
2018-12-15T05:15:58.647Z,100974.80
2018-12-15T05:18:27.025Z,100973.47
2018-12-15T05:20:55.431Z,100980.98
2018-12-15T05:23:23.841Z,100985.81
2018-12-15T05:25:52.257Z,100983.13
2018-12-15T05:28:20.805Z,100985.45
2018-12-15T05:30:49.260Z,100992.12
2018-12-15T05:33:17.683Z,100988.47
2018-12-15T05:35:46.043Z,100986.95
2018-12-15T05:38:14.493Z,100983.45
2018-12-15T05:40:42.851Z,100991.81
2018-12-15T05:43:11.229Z,100991.78
2018-12-15T05:45:39.583Z,100989.14
2018-12-15T05:48:07.954Z,100993.14
2018-12-15T05:50:36.326Z,100987.30
2018-12-15T05:53:04.733Z,100983.45
2018-12-15T05:55:33.171Z,100989.81
2018-12-15T05:58:01.626Z,100989.31
2018-12-15T06:00:30.131Z,100989.61
2018-12-15T06:02:58.879Z,101000.13
2018-12-15T06:05:27.916Z,100998.64
2018-12-15T06:07:56.533Z,100995.48
2018-12-15T06:10:24.941Z,101001.30
2018-12-15T06:12:53.348Z,101005.47
2018-12-15T06:15:21.782Z,101010.98
2018-12-15T06:17:50.178Z,101007.30
2018-12-15T06:20:18.627Z,101006.63
2018-12-15T06:22:47.900Z,101007.13
2018-12-15T06:25:17.030Z,101010.31
2018-12-15T06:27:45.398Z,101009.14
2018-12-15T06:30:13.822Z,101016.49
2018-12-15T06:32:42.244Z,101017.16
2018-12-15T06:35:10.702Z,101021.82
2018-12-15T06:37:39.152Z,101031.50
2018-12-15T06:40:07.763Z,101017.65
2018-12-15T06:42:36.194Z,101025.98
2018-12-15T06:45:05.324Z,101018.98
2018-12-15T06:47:33.718Z,101026.81
2018-12-15T06:50:02.219Z,101020.83
2018-12-15T06:52:30.637Z,101027.83
2018-12-15T06:54:59.059Z,101026.48
2018-12-15T06:57:27.496Z,101024.00
2018-12-15T06:59:55.906Z,101028.84
2018-12-15T07:02:24.337Z,101022.33
2018-12-15T07:04:52.908Z,101013.15
2018-12-15T07:07:21.291Z,101020.33
2018-12-15T07:09:49.683Z,101014.82
2018-12-15T07:12:18.145Z,101013.81
2018-12-15T07:14:46.561Z,101007.13
2018-12-15T07:17:15.823Z,101005.63
2018-12-15T07:19:44.228Z,101004.14
2018-12-15T07:22:12.828Z,100997.13
2018-12-15T07:24:41.228Z,100997.97
2018-12-15T07:27:09.612Z,101004.97
2018-12-15T07:29:37.999Z,100992.47
2018-12-15T07:32:06.404Z,100990.96
2018-12-15T07:34:36.057Z,100991.97
2018-12-15T07:37:04.472Z,100994.97
2018-12-15T07:39:32.852Z,100990.78
2018-12-15T07:42:01.253Z,100993.28
2018-12-15T07:44:29.628Z,100995.95
2018-12-15T07:46:58.147Z,100995.44
2018-12-15T07:49:26.563Z,100986.28
2018-12-15T07:51:54.967Z,100986.10
2018-12-15T07:54:23.451Z,100987.62
2018-12-15T07:56:52.126Z,100993.11
2018-12-15T07:59:20.573Z,100997.80
2018-12-15T08:01:49.089Z,101002.80
2018-12-15T08:04:17.510Z,100999.80
2018-12-15T08:06:45.901Z,101006.61
2018-12-15T08:09:14.367Z,101002.80
2018-12-15T08:11:48.143Z,101009.47
2018-12-15T08:14:16.791Z,101007.47
2018-12-15T08:16:45.247Z,101019.80
2018-12-15T08:19:13.700Z,101015.45
2018-12-15T08:21:42.131Z,101022.15
2018-12-15T08:24:10.790Z,101020.95
2018-12-15T08:26:39.192Z,101010.28
2018-12-15T08:29:14.100Z,101007.95
2018-12-15T08:31:42.524Z,101010.78
2018-12-15T08:34:10.959Z,101012.12
2018-12-15T08:36:39.483Z,101013.62
2018-12-15T08:39:08.527Z,101011.77
2018-12-15T08:41:37.027Z,101010.09
2018-12-15T08:44:06.554Z,101023.63
2018-12-15T08:46:35.127Z,101016.13
2018-12-15T08:49:04.851Z,101019.95
2018-12-15T08:51:33.449Z,101026.44
2018-12-15T08:56:38.856Z,101030.96
2018-12-15T08:59:07.386Z,101019.47
2018-12-15T09:01:35.923Z,101013.42
2018-12-15T09:04:04.580Z,101009.73
2018-12-15T09:06:33.173Z,101018.58
2018-12-15T09:09:02.026Z,101029.95
2018-12-15T09:11:30.431Z,101021.60
2018-12-15T09:13:58.852Z,101024.09
2018-12-15T09:16:27.267Z,101028.09
2018-12-15T09:18:55.668Z,101029.41
2018-12-15T09:21:24.080Z,101035.23
2018-12-15T09:23:52.494Z,101038.64
2018-12-15T09:26:20.902Z,101041.78
2018-12-15T09:28:49.549Z,101039.41
2018-12-15T09:31:19.018Z,101040.09
2018-12-15T09:33:48.183Z,101034.58
2018-12-15T09:36:16.743Z,101039.09
2018-12-15T09:38:45.149Z,101040.89
2018-12-15T09:41:19.081Z,101037.55
2018-12-15T09:43:47.546Z,101030.18
2018-12-15T09:46:16.136Z,101041.07
2018-12-15T09:48:47.141Z,101038.69
2018-12-15T09:51:19.851Z,101037.34
2018-12-15T09:53:48.907Z,101031.33
2018-12-15T09:56:17.539Z,101023.33
2018-12-15T09:58:45.984Z,101019.62
2018-12-15T10:01:14.412Z,101015.40
2018-12-15T10:03:43.451Z,101010.91
2018-12-15T10:06:11.892Z,101004.70
2018-12-15T10:08:40.397Z,101001.33
2018-12-15T10:11:08.804Z,100999.70
2018-12-15T10:13:38.147Z,101007.80
2018-12-15T10:16:06.571Z,101004.91
2018-12-15T10:18:35.094Z,101007.41
2018-12-15T10:21:03.607Z,101007.34
2018-12-15T10:23:32.152Z,101001.47
2018-12-15T10:26:00.562Z,100993.92
2018-12-15T10:28:29.008Z,100991.87
2018-12-15T10:31:02.531Z,100985.91
2018-12-15T10:33:30.951Z,100975.58
2018-12-15T10:35:59.392Z,100967.86
2018-12-15T10:38:27.807Z,100967.11
2018-12-15T10:40:56.246Z,100968.40
2018-12-15T10:43:24.651Z,100959.71
2018-12-15T10:45:53.075Z,100960.91
2018-12-15T10:48:21.581Z,100959.89
2018-12-15T10:50:49.991Z,100970.08
2018-12-15T10:53:18.372Z,100958.87
2018-12-15T10:55:46.791Z,100945.14
2018-12-15T10:58:15.331Z,100940.89
2018-12-15T11:00:49.128Z,100932.35
2018-12-15T11:03:17.507Z,100930.42
2018-12-15T11:05:45.935Z,100933.16
2018-12-15T11:08:14.608Z,100914.16
2018-12-15T11:10:43.086Z,100915.80
2018-12-15T11:13:11.524Z,100930.11
2018-12-15T11:15:40.029Z,100925.67
2018-12-15T11:18:08.456Z,100923.82
2018-12-15T11:20:36.910Z,100918.09
2018-12-15T11:23:05.627Z,100918.81
2018-12-15T11:25:34.136Z,100913.70
2018-12-15T11:28:02.664Z,100910.95
2018-12-15T11:30:31.091Z,100906.47
2018-12-15T11:32:59.960Z,100910.28
2018-12-15T11:35:28.443Z,100897.65
2018-12-15T11:37:56.850Z,100892.34
2018-12-15T11:40:25.251Z,100891.84
2018-12-15T11:42:53.743Z,100878.33
2018-12-15T11:45:22.423Z,100873.12
2018-12-15T11:47:50.857Z,100863.13
2018-12-15T11:50:19.320Z,100859.23
2018-12-15T11:52:47.743Z,100854.17
2018-12-15T11:55:16.171Z,100855.52
2018-12-15T11:57:44.644Z,100857.19
2018-12-15T12:00:13.302Z,100849.74
2018-12-15T12:02:42.423Z,100843.89
2018-12-15T12:05:11.031Z,100836.95
2018-12-15T12:07:39.584Z,100824.92
2018-12-15T12:10:08.291Z,100819.44
2018-12-15T12:12:36.734Z,100826.22
2018-12-15T12:15:05.603Z,100824.62
2018-12-15T12:17:34.150Z,100820.59
2018-12-15T12:20:05.340Z,100820.16
2018-12-15T12:22:33.786Z,100819.57
2018-12-15T12:25:02.204Z,100826.02
2018-12-15T12:27:30.676Z,100822.22
2018-12-15T12:29:59.097Z,100821.59
2018-12-15T12:32:27.563Z,100824.34
2018-12-15T12:34:55.929Z,100825.95
2018-12-15T12:37:24.369Z,100826.25
2018-12-15T12:39:52.763Z,100826.49
2018-12-15T12:42:21.195Z,100825.73
2018-12-15T12:44:49.578Z,100821.26
2018-12-15T12:47:17.964Z,100811.29
2018-12-15T12:49:46.358Z,100812.67
2018-12-15T12:52:14.859Z,100812.02
2018-12-15T12:54:43.323Z,100805.53
2018-12-15T12:57:11.855Z,100806.28
2018-12-15T12:59:40.277Z,100805.75
2018-12-15T13:02:08.679Z,100808.38
2018-12-15T13:04:37.062Z,100802.23
2018-12-15T13:07:05.499Z,100796.30
2018-12-15T13:09:33.909Z,100788.28
2018-12-15T13:12:02.316Z,100788.86
2018-12-15T13:14:31.281Z,100789.80
2018-12-15T13:16:59.936Z,100790.22
2018-12-15T13:19:28.569Z,100796.36
2018-12-15T13:21:57.184Z,100788.58
2018-12-15T13:24:25.703Z,100795.55
2018-12-15T13:26:59.202Z,100797.77
2018-12-15T13:29:24.706Z,100797.96
2018-12-15T13:31:53.419Z,100792.58
2018-12-15T13:34:21.875Z,100794.11
2018-12-15T13:36:50.256Z,100803.16
2018-12-15T13:39:18.746Z,100807.36
2018-12-15T13:48:45.041Z,100786.75
2018-12-15T13:51:14.767Z,100783.27
2018-12-15T13:53:43.297Z,100774.69
2018-12-15T13:56:11.919Z,100777.95
2018-12-15T13:58:40.395Z,100768.98
2018-12-15T14:01:08.787Z,100771.41
2018-12-15T14:03:37.521Z,100763.03
2018-12-15T14:06:05.975Z,100755.33
2018-12-15T14:08:34.418Z,100749.72
2018-12-15T14:11:02.943Z,100743.84
2018-12-15T14:13:31.356Z,100730.97
2018-12-15T14:15:59.799Z,100718.89
2018-12-15T14:18:28.230Z,100720.39
2018-12-15T14:20:56.678Z,100718.06
2018-12-15T14:23:25.263Z,100716.42
2018-12-15T14:25:53.975Z,100710.63
2018-12-15T14:28:22.381Z,100705.95
2018-12-15T14:30:50.799Z,100690.77
2018-12-15T14:33:19.368Z,100692.06
2018-12-15T14:35:47.933Z,100690.03
2018-12-15T14:38:16.363Z,100693.69
2018-12-15T14:40:44.928Z,100695.72
2018-12-15T14:43:13.734Z,100685.81
2018-12-15T14:45:42.299Z,100670.41
2018-12-15T14:48:10.735Z,100668.99
2018-12-15T14:50:39.190Z,100665.33
2018-12-15T14:53:07.595Z,100660.19
2018-12-15T14:55:36.500Z,100656.86
2018-12-15T14:58:04.938Z,100649.01
2018-12-15T15:00:33.469Z,100640.01
2018-12-15T15:03:01.886Z,100639.05
2018-12-15T15:05:30.347Z,100612.28
2018-12-15T15:07:58.755Z,100620.48
2018-12-15T15:10:27.567Z,100618.80
2018-12-15T15:12:55.971Z,100622.16
2018-12-15T15:15:32.035Z,100611.18
2018-12-15T15:18:00.671Z,100602.83
2018-12-15T15:20:29.942Z,100607.02
2018-12-15T15:22:58.660Z,100609.05
2018-12-15T15:25:27.105Z,100588.23
2018-12-15T15:27:55.534Z,100607.55
2018-12-15T15:30:24.027Z,100605.23
2018-12-15T15:32:52.488Z,100596.08
2018-12-15T15:35:20.912Z,100586.97
2018-12-15T15:37:49.393Z,100586.28
2018-12-15T15:40:17.831Z,100577.28
2018-12-15T15:42:46.356Z,100581.51
2018-12-15T15:45:14.791Z,100586.53
2018-12-15T15:47:43.253Z,100580.39
2018-12-15T15:50:11.799Z,100572.45
2018-12-15T15:52:40.292Z,100563.80
2018-12-15T15:55:08.941Z,100560.42
2018-12-15T15:57:37.411Z,100570.13
2018-12-15T16:00:08.146Z,100566.50
2018-12-15T16:02:36.596Z,100566.88
2018-12-15T16:05:06.493Z,100562.56
2018-12-15T16:07:41.295Z,100557.41
2018-12-15T16:10:11.341Z,100549.20
2018-12-15T16:12:39.830Z,100539.94
2018-12-15T16:15:09.642Z,100547.90
2018-12-15T16:17:38.099Z,100546.25
2018-12-15T16:20:09.448Z,100545.42
2018-12-15T16:22:44.386Z,100528.25
2018-12-15T16:25:13.124Z,100535.94
2018-12-15T16:27:41.784Z,100533.92
2018-12-15T16:30:12.613Z,100541.55
2018-12-15T16:32:42.304Z,100541.36
2018-12-15T16:35:11.394Z,100528.92
2018-12-15T16:37:39.884Z,100536.59
2018-12-15T16:40:08.872Z,100532.98
2018-12-15T16:42:38.427Z,100532.67
2018-12-15T16:45:09.708Z,100526.66
2018-12-15T16:47:42.104Z,100541.66
2018-12-15T16:50:13.668Z,100532.05
2018-12-15T16:52:42.649Z,100533.22
2018-12-15T16:55:11.615Z,100531.80
2018-12-15T16:57:40.849Z,100532.61
2018-12-15T17:00:15.831Z,100525.61
2018-12-15T17:02:44.383Z,100520.96
2018-12-15T17:05:12.951Z,100515.84
2018-12-15T17:07:42.730Z,100509.39
2018-12-15T17:10:11.784Z,100510.25
2018-12-15T17:12:40.332Z,100498.27
2018-12-15T17:15:10.604Z,100493.80
2018-12-15T17:17:39.560Z,100484.16
2018-12-15T17:20:10.714Z,100486.12
2018-12-15T17:22:39.144Z,100478.34
2018-12-15T17:25:09.053Z,100475.80
2018-12-15T17:27:37.726Z,100466.84
2018-12-15T17:30:08.855Z,100462.61
2018-12-15T17:32:37.936Z,100456.12
2018-12-15T17:35:08.008Z,100447.17
2018-12-15T17:37:37.034Z,100437.05
2018-12-15T17:40:13.661Z,100425.55
2018-12-15T17:42:43.078Z,100416.59
2018-12-15T17:45:14.279Z,100411.58
2018-12-15T17:47:44.458Z,100409.07
2018-12-15T17:50:13.275Z,100391.23
2018-12-15T17:52:42.883Z,100390.55
2018-12-15T17:55:21.453Z,100375.52
2018-12-15T17:57:56.115Z,100372.16
2018-12-15T18:00:24.604Z,100373.38
2018-12-15T18:02:53.158Z,100366.23
2018-12-15T18:05:28.820Z,100360.90
2018-12-15T18:08:01.224Z,100349.89
2018-12-15T18:10:30.760Z,100363.03
2018-12-15T18:12:59.472Z,100356.18
2018-12-15T18:15:28.857Z,100352.72
2018-12-15T18:17:59.638Z,100355.76
2018-12-15T18:20:28.219Z,100349.63
2018-12-15T18:22:59.506Z,100334.79
2018-12-15T18:25:28.016Z,100329.95
2018-12-15T18:27:56.459Z,100333.31
2018-12-15T18:30:25.014Z,100324.81
2018-12-15T18:32:53.497Z,100323.34
2018-12-15T18:35:23.679Z,100318.61
2018-12-15T18:37:53.792Z,100319.17
2018-12-15T18:40:22.535Z,100311.95
2018-12-15T18:42:51.106Z,100313.66
2018-12-15T18:45:19.582Z,100305.74
2018-12-15T18:47:48.369Z,100302.97
2018-12-15T18:50:21.881Z,100290.00
2018-12-15T18:52:50.400Z,100276.12
2018-12-15T18:55:18.819Z,100281.91
2018-12-15T18:57:47.227Z,100289.30
2018-12-15T19:00:18.756Z,100290.48
2018-12-15T19:02:50.724Z,100293.99
2018-12-15T19:05:31.617Z,100292.36
2018-12-15T19:08:00.470Z,100294.68
2018-12-15T19:10:28.889Z,100281.41
2018-12-15T19:12:57.299Z,100278.89
2018-12-15T19:15:25.871Z,100274.09
2018-12-15T19:17:54.254Z,100261.96
2018-12-15T19:20:22.644Z,100262.30
2018-12-15T19:22:51.127Z,100266.94
2018-12-15T19:25:19.565Z,100265.77
2018-12-15T19:27:48.227Z,100268.81
2018-12-15T19:30:16.624Z,100266.14
2018-12-15T19:32:45.028Z,100263.14
2018-12-15T19:35:13.447Z,100265.42
2018-12-15T19:37:41.829Z,100258.31
2018-12-15T19:40:10.367Z,100255.80
2018-12-15T19:42:39.377Z,100235.78
2018-12-15T19:45:08.295Z,100229.27
2018-12-15T19:47:37.007Z,100231.48
2018-12-15T19:50:06.364Z,100220.43
2018-12-15T19:52:34.748Z,100208.73
2018-12-15T19:55:03.317Z,100201.95
2018-12-15T20:00:10.356Z,100220.83
2018-12-15T20:02:38.836Z,100206.72
2018-12-15T20:05:07.556Z,100201.73
2018-12-15T20:07:35.972Z,100201.93
2018-12-15T20:10:04.459Z,100192.26
2018-12-15T20:12:33.016Z,100191.09
2018-12-15T20:15:01.552Z,100181.95
2018-12-15T20:17:30.012Z,100166.31
2018-12-15T20:19:58.444Z,100166.03
2018-12-15T20:22:27.296Z,100161.73
2018-12-15T20:24:55.944Z,100153.26
2018-12-15T20:27:24.744Z,100163.75
2018-12-15T20:29:53.132Z,100165.89
2018-12-15T20:32:21.579Z,100158.04
2018-12-15T20:34:50.054Z,100159.02
2018-12-15T20:37:18.486Z,100157.89
2018-12-15T20:39:46.917Z,100147.67
2018-12-15T20:42:15.357Z,100139.88
2018-12-15T20:44:43.776Z,100140.88
2018-12-15T20:47:12.278Z,100114.71
2018-12-15T20:49:40.677Z,100141.80
2018-12-15T20:52:09.444Z,100135.59
2018-12-15T20:54:37.868Z,100140.06
2018-12-15T20:57:06.301Z,100138.03
2018-12-15T20:59:34.713Z,100134.53
2018-12-15T21:02:03.205Z,100128.94
2018-12-15T21:04:31.592Z,100111.37
2018-12-15T21:06:59.999Z,100115.14
2018-12-15T21:09:28.416Z,100108.98
2018-12-15T21:11:56.831Z,100097.48
2018-12-15T21:14:25.244Z,100097.13
2018-12-15T21:16:53.668Z,100095.73
2018-12-15T21:19:22.063Z,100094.73
2018-12-15T21:21:50.478Z,100080.83
2018-12-15T21:24:18.868Z,100094.02
2018-12-15T21:26:47.299Z,100086.19
2018-12-15T21:29:16.252Z,100073.33
2018-12-15T21:31:44.667Z,100069.50
2018-12-15T21:34:13.059Z,100063.11
2018-12-15T21:36:41.733Z,100050.62
2018-12-15T21:39:10.226Z,100032.03
2018-12-15T21:41:38.682Z,100040.86
2018-12-15T21:44:07.095Z,100034.89
2018-12-15T21:46:35.539Z,100002.08
2018-12-15T21:49:03.948Z,100014.50
2018-12-15T21:51:32.367Z,100001.64
2018-12-15T21:54:00.793Z,99991.84
2018-12-15T21:56:29.299Z,99988.18
2018-12-15T21:58:57.708Z,99984.95
2018-12-15T22:01:26.307Z,99969.71
2018-12-15T22:03:54.716Z,99957.44
2018-12-15T22:06:23.131Z,99951.34
2018-12-15T22:08:51.557Z,99954.22
2018-12-15T22:11:19.928Z,99941.14
2018-12-15T22:13:48.332Z,99932.02
2018-12-15T22:16:17.392Z,99930.78
2018-12-15T22:18:45.828Z,99920.26
2018-12-15T22:21:14.284Z,99911.36
2018-12-15T22:23:42.905Z,99905.23
2018-12-15T22:26:11.295Z,99905.73
2018-12-15T22:28:39.691Z,99895.81
2018-12-15T22:31:08.059Z,99886.16
2018-12-15T22:33:36.568Z,99891.89
2018-12-15T22:36:04.955Z,99896.82
2018-12-15T22:38:33.396Z,99883.69
2018-12-15T22:41:01.784Z,99880.75
2018-12-15T22:43:30.179Z,99886.20
2018-12-15T22:45:58.579Z,99865.08
2018-12-15T22:48:27.009Z,99862.53
2018-12-15T22:50:55.386Z,99854.33
2018-12-15T22:53:23.817Z,99851.88
2018-12-15T22:55:52.176Z,99850.33
2018-12-15T22:58:20.613Z,99855.41
2018-12-15T23:00:54.604Z,99851.37
2018-12-15T23:03:22.984Z,99851.99
2018-12-15T23:05:51.883Z,99843.79
2018-12-15T23:08:20.274Z,99844.88
2018-12-15T23:10:48.716Z,99845.83
2018-12-15T23:13:21.465Z,99846.08
2018-12-15T23:15:55.927Z,99836.38
2018-12-15T23:18:24.311Z,99835.79
2018-12-15T23:20:52.708Z,99825.45
2018-12-15T23:23:21.221Z,99843.04
2018-12-15T23:25:49.635Z,99835.75
2018-12-15T23:28:17.998Z,99842.45
2018-12-15T23:30:46.460Z,99845.45
2018-12-15T23:33:14.836Z,99843.29
2018-12-15T23:35:43.346Z,99844.38
2018-12-15T23:38:12.903Z,99847.29
2018-12-15T23:40:42.123Z,99849.88
2018-12-15T23:43:10.571Z,99856.34
2018-12-15T23:45:39.032Z,99860.66
2018-12-15T23:48:07.569Z,99874.96
2018-12-15T23:50:35.985Z,99877.63
2018-12-15T23:53:04.394Z,99888.70
2018-12-15T23:55:33.933Z,99894.96
2018-12-15T23:58:02.391Z,99898.66
